Flight Track Log - Related Links

Times and Time Zones

All times are in EDT time to prevent confusion due to time zone crossing. See the DAL121 flight status page for this flight to view local times or setup timezone preferences in your user account.

Time Position Orientation Groundspeed Altitude Reporting Facility
EDT Latitude Longitude Course Direction KTS MPH feet Rate Location/Type
Tue 11:14:47 PM 40.6530 -73.7670 31° Northeast 183 211 500  Level FlightAware ADS-B
Tue 11:15:02 PM 40.6630 -73.7540 45° Northeast 183 211 1,100 1,600 Climbing FlightAware ADS-B
Tue 11:15:17 PM 40.6660 -73.7390 75° East 191 220 1,300 900 Climbing FlightAware ADS-B
Tue 11:15:42 PM 40.6680 -73.7090 85° East 218 251 1,700 1,200 Climbing FlightAware ADS-B
Tue 11:15:57 PM 40.6670 -73.6870 93° East 227 261 2,100 1,600 Climbing FlightAware ADS-B
Tue 11:16:12 PM 40.6600 -73.6690 117° Southeast 238 274 2,500 1,800 Climbing FlightAware ADS-B
Tue 11:16:27 PM 40.6480 -73.6520 133° Southeast 246 283 3,000 2,400 Climbing FlightAware ADS-B
Tue 11:16:42 PM 40.6340 -73.6410 149° Southeast 245 282 3,700 2,700 Climbing FlightAware ADS-B
Tue 11:17:07 PM 40.6100 -73.6210 148° Southeast 248 285 4,800 2,700 Climbing FlightAware ADS-B
Tue 11:17:22 PM 40.5950 -73.6080 147° Southeast 248 285 5,500 2,651 Climbing FlightAware ADS-B
Tue 11:17:50 PM 40.5660 -73.5826 146° Southeast 255 293 6,700 2,432 Climbing FlightAware ADS-B
Tue 11:17:59 PM 40.5571 -73.5745 145° Southeast 258 297 7,000 2,000 Climbing FlightAware ADS-B
Tue 11:18:05 PM 40.5517 -73.5692 143° Southeast 259 298 7,200 2,625 Climbing FlightAware ADS-B
Tue 11:18:15 PM 40.5420 -73.5588 141° Southeast 259 298 7,700 2,750 Climbing FlightAware ADS-B
Tue 11:18:29 PM 40.5302 -73.5439 136° Southeast 261 300 8,300 2,400 Climbing FlightAware ADS-B
Tue 11:18:40 PM 40.5212 -73.5312 133° Southeast 263 303 8,700 2,222 Climbing FlightAware ADS-B
Tue 11:18:56 PM 40.5089 -73.5126 131° Southeast 264 304 9,300 2,323 Climbing FlightAware ADS-B
Tue 11:19:11 PM 40.4970 -73.4940 130° Southeast 266 306 9,900 1,688 Climbing FlightAware ADS-B
Tue 11:19:28 PM 40.4824 -73.4726 132° Southeast 284 327 10,200 894 Climbing FlightAware ADS-B
Tue 11:19:58 PM 40.4535 -73.4324 133° Southeast 316 364 10,600 1,125 Climbing FlightAware ADS-B
Tue 11:20:16 PM 40.4353 -73.4067 133° Southeast 324 373 11,100 1,733 Climbing FlightAware ADS-B
Tue 11:20:43 PM 40.4079 -73.3669 132° Southeast 338 389 11,900 1,474 Climbing FlightAware ADS-B
Tue 11:21:13 PM 40.3749 -73.3190 132° Southeast 363 418 12,500 1,300 Climbing FlightAware ADS-B
Tue 11:21:43 PM 40.3403 -73.2682 132° Southeast 381 438 13,200 1,714 Climbing FlightAware ADS-B
Tue 11:22:16 PM 40.3033 -73.2083 129° Southeast 390 449 14,300 2,000 Climbing FlightAware ADS-B
Tue 11:22:37 PM 40.2800 -73.1686 128° Southeast 396 456 15,000 2,377 Climbing FlightAware ADS-B
Tue 11:23:09 PM 40.2449 -73.1073 127° Southeast 393 452 16,400 3,524 Climbing FlightAware ADS-B
Tue 11:23:40 PM 40.2128 -73.0517 127° Southeast 362 417 18,700 3,246 Climbing FlightAware ADS-B
Tue 11:24:10 PM 40.1817 -72.9985 127° Southeast 363 418 19,700 1,778 Climbing FlightAware ADS-B
Tue 11:24:34 PM 40.1571 -72.9566 128° Southeast 370 426 20,300 1,556 Climbing FlightAware ADS-B
Tue 11:25:04 PM 40.1255 -72.9028 128° Southeast 373 429 21,100 1,636 Climbing FlightAware ADS-B
Tue 11:25:51 PM 40.0755 -72.8182 128° Southeast 379 436 22,400 1,485 Climbing FlightAware ADS-B
Tue 11:26:41 PM 40.0222 -72.7279 128° Southeast 384 442 23,500 1,315 Climbing FlightAware ADS-B
Tue 11:27:04 PM 39.9954 -72.6847 129° Southeast 391 450 24,000 1,286 Climbing FlightAware ADS-B
Tue 11:27:09 PM 39.9888 -72.6761 135° Southeast 391 450 24,100 1,200 Climbing FlightAware ADS-B
Tue 11:27:24 PM 39.9683 -72.6553 142° Southeast 390 449 24,400 1,154 Climbing FlightAware ADS-B
Tue 11:27:35 PM 39.9502 -72.6414 150° Southeast 393 452 24,600 1,000 Climbing FlightAware ADS-B
Tue 11:28:00 PM 39.9087 -72.6197 158° South 397 457 25,000 931 Climbing FlightAware ADS-B
Tue 11:28:33 PM 39.8519 -72.5910 159° South 407 468 25,500 1,103 Climbing FlightAware ADS-B
Tue 11:29:27 PM 39.7570 -72.5450 160° South 412 474 26,600 1,258 Climbing FlightAware ADS-B
Tue 11:29:35 PM 39.7413 -72.5372 159° South 413 475 26,800 933 Climbing FlightAware ADS-B
Tue 11:30:12 PM 39.6870 -72.5110 160° South 411 473 27,300 1,024 Climbing FlightAware ADS-B
Tue 11:30:16 PM 39.6661 -72.5003 158° South 421 484 27,500 973 Climbing FlightAware ADS-B
Tue 11:30:49 PM 39.6053 -72.4705 159° South 431 496 27,900 646 Climbing FlightAware ADS-B
Tue 11:31:21 PM 39.5448 -72.4409 159° South 439 505 28,200 750 Climbing FlightAware ADS-B
Tue 11:32:17 PM 39.4480 -72.3940 159° South 445 512 29,000 774 Climbing FlightAware ADS-B
Tue 11:32:23 PM 39.4268 -72.3832 159° South 446 513 29,000  Level FlightAware ADS-B
Tue 11:32:57 PM 39.3710 -72.3560 159° South 435 501 29,000  Level FlightAware ADS-B
Tue 11:33:39 PM 39.2802 -72.3119 159° South 442 509 29,000  Level FlightAware ADS-B
Tue 11:34:24 PM 39.1949 -72.2704 159° South 444 511 29,000  Level FlightAware ADS-B
Tue 11:34:54 PM 39.1372 -72.2420 159° South 443 510 29,000  Level FlightAware ADS-B
Tue 11:35:26 PM 39.0754 -72.2115 159° South 442 509 29,000  Level FlightAware ADS-B
Tue 11:35:56 PM 39.0174 -72.1831 159° South 441 507 29,000  Level FlightAware ADS-B
Tue 11:36:27 PM 38.9592 -72.1547 159° South 440 506 29,000  Level FlightAware ADS-B
Tue 11:36:59 PM 38.8976 -72.1246 159° South 439 505 29,000  Level FlightAware ADS-B
Tue 11:37:31 PM 38.8375 -72.0955 159° South 438 504 29,000  Level FlightAware ADS-B
Tue 11:38:01 PM 38.7802 -72.0676 159° South 436 502 29,000  Level FlightAware ADS-B
Tue 11:38:33 PM 38.7213 -72.0391 159° South 437 503 29,000  Level FlightAware ADS-B
Tue 11:39:04 PM 38.6617 -72.0102 159° South 436 502 29,000  Level FlightAware ADS-B
Tue 11:39:54 PM 38.5666 -71.9642 159° South 437 503 29,000  Level FlightAware ADS-B
Tue 11:40:30 PM 38.4993 -71.9320 159° South 437 503 29,000  Level FlightAware ADS-B
Tue 11:41:14 PM 38.4159 -71.8917 159° South 441 507 29,000 188 Level FlightAware ADS-B
Tue 11:42:06 PM 38.3142 -71.8472 159° South 443 510 29,300 478 Climbing New York Center
Tue 11:43:07 PM 38.1981 -71.7925 160° South 443 510 29,900 300 Climbing New York Center
Tue 11:44:06 PM 38.0836 -71.7328 158° South 443 510 29,900 51 Level New York Center
Tue 11:45:04 PM 37.9717 -71.6786 159° South 443 510 30,000 50 Climbing New York Center
Tue 11:46:05 PM 37.8553 -71.6272 161° South 443 510 30,000 -49 Level New York Center
Tue 11:47:06 PM 37.7389 -71.5681 158° South 443 510 29,900 -50 Descending New York Center
Tue 11:48:05 PM 37.6222 -71.5169 161° South 443 510 29,900  Level New York Center
Tue 11:49:04 PM 37.5308 -71.4714 158° South 443 510 29,900 50 Level New York Center
Tue 11:50:05 PM 37.3936 -71.4019 158° South 443 510 30,000 50 Climbing New York Center
Tue 11:51:05 PM 37.2833 -71.3331 154° Southeast 448 516 30,000  Level New York Center
Tue 11:52:04 PM 37.1731 -71.2644 154° Southeast 448 516 30,000  Level New York Center
Tue 11:54:00 PM 36.9569 -71.1322 155° Southeast  Level FlightAware Approximate
Wed 12:01:00 AM 36.1625 -70.6695 155° Southeast  Level FlightAware Approximate
Wed 12:02:00 AM 36.0489 -70.6042 155° Southeast  Level FlightAware Approximate
Wed 12:03:00 AM 35.9352 -70.5390 155° Southeast  Level FlightAware Approximate
Wed 12:03:08 AM 36.0000 -70.5833 155° Southeast 437 503 30,000  Level New York Oceanic (ODAPS)
Wed 12:04:00 AM 35.8215 -70.4741 155° Southeast  Level FlightAware Approximate
Wed 12:05:00 AM 35.7046 -70.4212 168° South  Level FlightAware Approximate
Wed 12:05:20 AM 35.7667 -70.4500 168° South 424 488 31,000  Level New York Oceanic (ODAPS)
Wed 12:06:00 AM 35.5821 -70.3887 168° South  Level FlightAware Approximate
Wed 12:07:00 AM 35.4596 -70.3562 168° South  Level FlightAware Approximate
Wed 12:08:00 AM 35.3372 -70.3239 168° South  Level FlightAware Approximate
Wed 12:09:00 AM 35.2736 -70.3203 168° South 437 503 30,000  Level FlightAware Transoceanic
Wed 12:10:00 AM 35.1503 -70.2881 168° South 437 503 30,000 500 Level FlightAware Transoceanic
Wed 12:11:00 AM 35.0622 -70.2652 168° South 424 488 31,000 500 Climbing FlightAware Transoceanic
Wed 12:12:00 AM 34.9448 -70.2347 168° South 424 488 31,000  Level FlightAware Transoceanic
Wed 12:13:00 AM 34.8274 -70.2043 168° South 424 488 31,000  Level FlightAware Transoceanic
Wed 12:14:00 AM 34.7099 -70.1740 168° South 424 488 31,000  Level FlightAware Transoceanic
Wed 12:15:00 AM 34.5925 -70.1437 168° South 424 488 31,000  Level FlightAware Transoceanic
Wed 12:16:00 AM 34.4750 -70.1136 168° South 424 488 31,000  Level FlightAware Transoceanic
Wed 12:16:44 AM 34.4167 -70.1000 168° South 426 490 31,000  Level New York Oceanic (ODAPS)
Wed 12:17:00 AM 34.3575 -70.0835 168° South 424 488 31,000  Level FlightAware Transoceanic
Wed 12:18:00 AM 34.2401 -70.0535 168° South 424 488 31,000  Level FlightAware Transoceanic
Wed 12:19:00 AM 34.1226 -70.0236 168° South 424 488 31,000  Level FlightAware Transoceanic
Wed 12:20:00 AM 34.0051 -69.9938 168° South 424 488 31,000  Level FlightAware Transoceanic
Wed 12:21:00 AM 33.8876 -69.9641 168° South 424 488 31,000  Level FlightAware Transoceanic
Wed 12:22:00 AM 33.7701 -69.9344 168° South 424 488 31,000  Level FlightAware Transoceanic
Wed 12:23:00 AM 33.6351 -69.9009 168° South 426 490 31,000  Level FlightAware Transoceanic
Wed 12:24:00 AM 33.5234 -69.8727 168° South 426 490 31,000  Level FlightAware Transoceanic
Wed 12:25:00 AM 33.4117 -69.8447 168° South 426 490 31,000  Level FlightAware Transoceanic
Wed 12:26:00 AM 33.3000 -69.8167 168° South 426 490 31,000  Level FlightAware Transoceanic
Wed 12:26:23 AM 33.3000 -69.8167 168° South 439 505 31,000  Level New York Oceanic (ODAPS)
Wed 12:27:00 AM 33.1801 -69.7868 168° South 426 490 31,000  Level FlightAware Transoceanic
Wed 12:28:00 AM 33.0601 -69.7569 168° South 426 490 31,000  Level FlightAware Transoceanic
Wed 12:29:00 AM 32.9402 -69.7272 168° South 426 490 31,000  Level FlightAware Transoceanic
Wed 12:30:00 AM 32.8202 -69.6975 168° South 426 490 31,000  Level FlightAware Transoceanic
Wed 12:30:39 AM 32.7667 -69.6833 168° South 436 502 31,000  Level New York Oceanic (ODAPS)
Wed 12:31:00 AM 32.7002 -69.6679 168° South 426 490 31,000  Level FlightAware Transoceanic
Wed 12:32:00 AM 32.5803 -69.6384 168° South 439 505 31,000  Level FlightAware Transoceanic
Wed 12:33:00 AM 32.4603 -69.6090 168° South 439 505 31,000  Level FlightAware Transoceanic
Wed 12:34:00 AM 32.3403 -69.5796 168° South 439 505 31,000  Level FlightAware Transoceanic
Wed 12:35:00 AM 32.2203 -69.5504 168° South 439 505 31,000  Level FlightAware Transoceanic
Wed 12:36:00 AM 32.0668 -69.5124 168° South 436 502 31,000  Level FlightAware Transoceanic
Wed 12:37:00 AM 31.9502 -69.4842 168° South 436 502 31,000  Level FlightAware Transoceanic
Wed 12:38:00 AM 31.8335 -69.4561 168° South 436 502 31,000  Level FlightAware Transoceanic
Wed 12:39:00 AM 31.7169 -69.4280 168° South 436 502 31,000  Level FlightAware Transoceanic
Wed 12:40:00 AM 31.6002 -69.4000 168° South 436 502 31,000  Level FlightAware Transoceanic
Wed 12:41:00 AM 31.4835 -69.3720 168° South 436 502 31,000  Level FlightAware Transoceanic
Wed 12:42:00 AM 31.3668 -69.3441 168° South 436 502 31,000  Level FlightAware Transoceanic
Wed 12:43:00 AM 31.2501 -69.3163 169° South 436 502 31,000  Level FlightAware Transoceanic
Wed 12:44:00 AM 31.1334 -69.2886 169° South 436 502 31,000  Level FlightAware Transoceanic
Wed 12:44:33 AM 31.1167 -69.2833 169° South 439 505 31,000  Level New York Oceanic (ODAPS)
Wed 12:45:00 AM 31.0167 -69.2609 169° South 436 502 31,000  Level FlightAware Transoceanic
Wed 12:46:00 AM 30.9000 -69.2333 168° South 436 502 31,000  Level FlightAware Transoceanic
Wed 12:46:36 AM 30.9000 -69.2333 168° South 440 506 31,000  Level New York Oceanic (ODAPS)
Wed 12:47:00 AM 30.7748 -69.2035 168° South 436 502 31,000  Level FlightAware Transoceanic
Wed 12:48:00 AM 30.6495 -69.1737 168° South 436 502 31,000  Level FlightAware Transoceanic
Wed 12:49:00 AM 30.5243 -69.1440 168° South 436 502 31,000  Level FlightAware Transoceanic
Wed 12:50:00 AM 30.3990 -69.1143 168° South 439 505 31,000  Level FlightAware Transoceanic
Wed 12:51:00 AM 30.2737 -69.0848 168° South 439 505 31,000  Level FlightAware Transoceanic
Wed 12:52:00 AM 30.1585 -69.0577 169° South 440 506 31,000  Level FlightAware Transoceanic
Wed 12:53:00 AM 30.0349 -69.0287 169° South 440 506 31,000  Level FlightAware Transoceanic
Wed 12:54:00 AM 29.9112 -68.9997 169° South 440 506 31,000  Level FlightAware Transoceanic
Wed 12:55:00 AM 29.7876 -68.9708 169° South 440 506 31,000  Level FlightAware Transoceanic
Wed 12:56:00 AM 29.6640 -68.9420 169° South 440 506 31,000  Level FlightAware Transoceanic
Wed 12:57:00 AM 29.5404 -68.9133 169° South 440 506 31,000  Level FlightAware Transoceanic
Wed 12:58:00 AM 29.4167 -68.8846 169° South 440 506 31,000  Level FlightAware Transoceanic
Wed 12:58:28 AM 29.4333 -68.8833 169° South 454 522 31,000  Level New York Oceanic (ODAPS)
Wed 12:59:00 AM 29.2931 -68.8560 169° South 440 506 31,000  Level FlightAware Transoceanic
Wed 01:00:00 AM 29.1694 -68.8275 169° South 440 506 31,000  Level FlightAware Transoceanic
Wed 01:01:00 AM 29.0458 -68.7991 169° South 440 506 31,000  Level FlightAware Transoceanic
Wed 01:02:00 AM 28.9221 -68.7707 169° South 440 506 31,000  Level FlightAware Transoceanic
Wed 01:03:00 AM 28.7984 -68.7424 169° South 440 506 31,000  Level FlightAware Transoceanic
Wed 01:03:49 AM 28.8167 -68.7333 169° South 455 524 31,000  Level New York Oceanic (ODAPS)
Wed 01:04:00 AM 28.6778 -68.7102 169° South 454 522 31,000  Level FlightAware Transoceanic
Wed 01:05:00 AM 28.5518 -68.6816 169° South 454 522 31,000  Level FlightAware Transoceanic
Wed 01:06:00 AM 28.4259 -68.6530 169° South 454 522 31,000  Level FlightAware Transoceanic
Wed 01:07:00 AM 28.2999 -68.6245 169° South 454 522 31,000  Level FlightAware Transoceanic
Wed 01:08:00 AM 28.1740 -68.5961 169° South 454 522 31,000  Level FlightAware Transoceanic
Wed 01:09:00 AM 28.0480 -68.5678 169° South 454 522 31,000  Level FlightAware Transoceanic
Wed 01:10:00 AM 27.9334 -68.5347 169° South 455 524 31,000  Level FlightAware Transoceanic
Wed 01:10:54 AM 27.9333 -68.5333 169° South 458 527 31,000  Level New York Oceanic (ODAPS)
Wed 01:11:00 AM 27.8071 -68.5066 169° South 455 524 31,000  Level FlightAware Transoceanic
Wed 01:12:00 AM 27.6809 -68.4785 169° South 455 524 31,000  Level FlightAware Transoceanic
Wed 01:12:19 AM 27.7000 -68.4833 169° South 453 521 31,000  Level New York Oceanic (ODAPS)
Wed 01:13:00 AM 27.5547 -68.4505 169° South 455 524 31,000  Level FlightAware Transoceanic
Wed 01:14:00 AM 27.4285 -68.4226 169° South 455 524 31,000  Level FlightAware Transoceanic
Wed 01:15:00 AM 27.3022 -68.3948 169° South 455 524 31,000  Level FlightAware Transoceanic
Wed 01:16:00 AM 27.1760 -68.3670 169° South 455 524 31,000  Level FlightAware Transoceanic
Wed 01:17:00 AM 27.0497 -68.3381 169° South 458 527 31,000  Level FlightAware Transoceanic
Wed 01:18:00 AM 26.9402 -68.3157 169° South 453 521 31,000  Level FlightAware Transoceanic
Wed 01:19:00 AM 26.8136 -68.2880 169° South 453 521 31,000  Level FlightAware Transoceanic
Wed 01:20:00 AM 26.6869 -68.2604 169° South 453 521 31,000  Level FlightAware Transoceanic
Wed 01:21:00 AM 26.5602 -68.2328 169° South 453 521 31,000  Level FlightAware Transoceanic
Wed 01:22:00 AM 26.4336 -68.2053 169° South 453 521 31,000  Level FlightAware Transoceanic
Wed 01:23:00 AM 26.3069 -68.1778 169° South 453 521 31,000  Level FlightAware Transoceanic
Wed 01:24:00 AM 26.1802 -68.1504 169° South 453 521 31,000  Level FlightAware Transoceanic
Wed 01:25:00 AM 26.0535 -68.1230 169° South 453 521 31,000  Level FlightAware Transoceanic
Wed 01:26:00 AM 25.9268 -68.0957 169° South 453 521 31,000  Level FlightAware Transoceanic
Wed 01:26:07 AM 25.9833 -68.1167 169° South 453 521 31,000  Level New York Oceanic (ODAPS)
Wed 01:27:00 AM 25.8002 -68.0685 169° South 453 521 31,000  Level FlightAware Transoceanic
Wed 01:28:00 AM 25.6735 -68.0414 169° South 453 521 31,000  Level FlightAware Transoceanic
Wed 01:29:00 AM 25.5467 -68.0142 169° South 453 521 31,000  Level FlightAware Transoceanic
Wed 01:30:00 AM 25.4200 -67.9872 169° South 453 521 31,000  Level FlightAware Transoceanic
Wed 01:30:39 AM 25.4667 -68.0000 169° South 456 525 31,000  Level New York Oceanic (ODAPS)
Wed 01:31:00 AM 25.2933 -67.9602 169° South 453 521 31,000  Level FlightAware Transoceanic
Wed 01:32:00 AM 25.2132 -67.9503 169° South 453 521 31,000  Level FlightAware Transoceanic
Wed 01:33:00 AM 25.0848 -67.9228 169° South 453 521 31,000  Level FlightAware Transoceanic
Wed 01:34:00 AM 24.9564 -67.8953 169° South 453 521 31,000  Level FlightAware Transoceanic
Wed 01:35:00 AM 24.8280 -67.8679 169° South 453 521 31,000  Level FlightAware Transoceanic
Wed 01:36:00 AM 24.7218 -67.8414 169° South 456 525 31,000  Level FlightAware Transoceanic
Wed 01:37:00 AM 24.5977 -67.8152 169° South 456 525 31,000  Level FlightAware Transoceanic
Wed 01:38:00 AM 24.4735 -67.7890 169° South 456 525 31,000  Level FlightAware Transoceanic
Wed 01:39:00 AM 24.3493 -67.7628 169° South 456 525 31,000  Level FlightAware Transoceanic
Wed 01:39:58 AM 24.2667 -67.7500 169° South 463 533 31,000  Level New York Oceanic (ODAPS)
Wed 01:40:00 AM 24.2252 -67.7367 169° South 456 525 31,000  Level FlightAware Transoceanic
Wed 01:40:21 AM 24.2500 -67.7333 169° South 462 532 31,000  Level New York Oceanic (ODAPS)
Wed 01:41:00 AM 24.1010 -67.7107 169° South 456 525 31,000  Level FlightAware Transoceanic
Wed 01:42:00 AM 23.9768 -67.6847 169° South 456 525 31,000  Level FlightAware Transoceanic
Wed 01:43:00 AM 23.8526 -67.6588 169° South 456 525 31,000  Level FlightAware Transoceanic
Wed 01:44:00 AM 23.7285 -67.6329 169° South 456 525 31,000  Level FlightAware Transoceanic
Wed 01:45:00 AM 23.6043 -67.6070 169° South 456 525 31,000  Level FlightAware Transoceanic
Wed 01:46:00 AM 23.4602 -67.5711 169° South 462 532 31,000  Level FlightAware Transoceanic
Wed 01:46:45 AM 23.3500 -67.5500 169° South 460 529 31,000  Level San Juan Center
Wed 01:47:00 AM 23.3285 -67.5443 169° South 462 532 31,000  Level FlightAware Transoceanic
Wed 01:47:46 AM 23.2167 -67.5167 167° South 460 529 31,000  Level San Juan Center
Wed 01:48:00 AM 23.1969 -67.5175 169° South 462 532 31,000  Level FlightAware Transoceanic
Wed 01:48:46 AM 23.1000 -67.5000 173° South 460 529 31,000  Level San Juan Center
Wed 01:49:00 AM 23.0652 -67.4908 169° South 462 532 31,000  Level FlightAware Transoceanic
Wed 01:49:46 AM 22.9667 -67.4667 167° South 460 529 31,000  Level San Juan Center
Wed 01:50:00 AM 22.9336 -67.4641 169° South 462 532 31,000  Level FlightAware Transoceanic
Wed 01:50:47 AM 22.8500 -67.4500 173° South 450 518 31,000  Level San Juan Center
Wed 01:51:00 AM 22.8019 -67.4374 169° South 462 532 31,000  Level FlightAware Transoceanic
Wed 01:51:47 AM 22.7167 -67.4167 167° South 460 529 31,000  Level San Juan Center
Wed 01:52:00 AM 22.6702 -67.4109 169° South 462 532 31,000  Level FlightAware Transoceanic
Wed 01:52:47 AM 22.6000 -67.4000 172° South 450 518 31,000  Level San Juan Center
Wed 01:53:48 AM 22.4667 -67.3667 167° South 460 529 31,000  Level San Juan Center
Wed 01:53:51 AM 22.5000 -67.3833 169° South 456 525 31,000  Level New York Oceanic (ODAPS)
Wed 01:54:48 AM 22.3500 -67.3500 169° South 460 529 31,000  Level San Juan Center
Wed 01:55:48 AM 22.2167 -67.3167 167° South 450 518 31,000  Level San Juan Center
Wed 01:56:29 AM 22.2333 -67.3167 170° South 461 531 31,000  Level New York Oceanic (ODAPS)
Wed 01:56:49 AM 22.1000 -67.2833 170° South 450 518 31,000  Level San Juan Center
Wed 01:57:49 AM 21.9667 -67.2667 173° South 460 529 31,000  Level San Juan Center
Wed 01:58:49 AM 21.8500 -67.2333 165° South 450 518 31,000  Level San Juan Center
Wed 01:59:50 AM 21.7167 -67.2167 173° South 470 541 31,000  Level San Juan Center
Wed 02:00:50 AM 21.6000 -67.1833 165° South 450 518 31,000  Level San Juan Center
Wed 02:01:50 AM 21.4667 -67.1500 167° South 470 541 31,000  Level San Juan Center
Wed 02:02:50 AM 21.3500 -67.0833 152° Southeast 460 529 31,000  Level San Juan Center
Wed 02:03:51 AM 21.2333 -67.0333 158° South 460 529 31,000  Level San Juan Center
Wed 02:04:51 AM 21.1167 -66.9833 158° South 460 529 31,000  Level San Juan Center
Wed 02:10:17 AM 20.5030 -66.6740 158° South 465 535 31,000  Level FlightAware ADS-B
Wed 02:11:07 AM 20.4090 -66.6280 155° Southeast 465 535 31,000  Level FlightAware ADS-B
Wed 02:12:07 AM 20.2820 -66.5690 156° South 470 541 31,000  Level FlightAware ADS-B
Wed 02:12:47 AM 20.2040 -66.5320 156° South 473 544 31,000  Level FlightAware ADS-B
Wed 02:13:32 AM 20.1140 -66.4890 156° South 476 548 31,000  Level FlightAware ADS-B
Wed 02:14:12 AM 20.0320 -66.4500 156° South 479 551 31,000  Level FlightAware ADS-B
Wed 02:14:57 AM 19.9400 -66.4060 156° South 480 552 31,000  Level FlightAware ADS-B
Wed 02:15:37 AM 19.8580 -66.3670 156° South 481 554 31,000  Level FlightAware ADS-B
Wed 02:16:17 AM 19.7770 -66.3290 156° South 481 554 31,000  Level FlightAware ADS-B
Wed 02:16:57 AM 19.6940 -66.2890 156° South 481 554 31,000  Level FlightAware ADS-B
Wed 02:17:42 AM 19.6060 -66.2480 156° South 481 554 31,000  Level FlightAware ADS-B
Wed 02:18:27 AM 19.5110 -66.2030 156° South 479 551 31,000  Level FlightAware ADS-B
Wed 02:19:07 AM 19.4310 -66.1650 156° South 479 551 31,000  Level FlightAware ADS-B
Wed 02:19:52 AM 19.3410 -66.1230 156° South 477 549 31,000  Level FlightAware ADS-B
Wed 02:20:32 AM 19.2570 -66.0830 156° South 476 548 31,000  Level FlightAware ADS-B
Wed 02:21:12 AM 19.1800 -66.0470 156° South 474 545 31,000  Level FlightAware ADS-B
Wed 02:21:57 AM 19.0880 -66.0040 156° South 473 544 31,000  Level FlightAware ADS-B
Wed 02:22:37 AM 19.0070 -65.9650 156° South 472 543 31,000  Level FlightAware ADS-B
Wed 02:23:22 AM 18.9200 -65.9240 156° South 473 544 31,000  Level FlightAware ADS-B
Wed 02:24:02 AM 18.8400 -65.8870 156° South 471 542 31,000  Level FlightAware ADS-B
Wed 02:24:42 AM 18.7590 -65.8490 156° South 471 542 31,000  Level FlightAware ADS-B
Wed 02:25:27 AM 18.6680 -65.8060 156° South 471 542 31,000  Level FlightAware ADS-B
Wed 02:26:07 AM 18.5880 -65.7690 156° South 470 541 31,000  Level FlightAware ADS-B
Wed 02:26:52 AM 18.4990 -65.7270 156° South 470 541 31,000  Level FlightAware ADS-B
Wed 02:27:32 AM 18.4200 -65.6900 156° South 470 541 31,000  Level FlightAware ADS-B
Wed 02:28:12 AM 18.3400 -65.6520 156° South 471 542 31,000  Level FlightAware ADS-B
Wed 02:28:57 AM 18.2490 -65.6100 156° South 471 542 31,000  Level FlightAware ADS-B
Wed 02:29:37 AM 18.1680 -65.5720 156° South 471 542 31,000  Level FlightAware ADS-B
Wed 02:30:22 AM 18.0810 -65.5310 156° South 471 542 31,000  Level FlightAware ADS-B
Wed 02:31:02 AM 18.0010 -65.4930 156° South 471 542 31,000  Level FlightAware ADS-B
Wed 02:31:42 AM 17.9210 -65.4560 156° South 471 542 31,000  Level FlightAware ADS-B
Wed 02:32:22 AM 17.8410 -65.4190 156° South 471 542 31,000  Level FlightAware ADS-B
Wed 02:33:07 AM 17.7500 -65.3760 156° South 470 541 31,000  Level FlightAware ADS-B
Wed 02:33:47 AM 17.6690 -65.3390 156° South 471 542 31,000  Level FlightAware ADS-B
Wed 02:34:32 AM 17.5820 -65.2990 156° South 471 542 31,000  Level FlightAware ADS-B
Wed 02:35:12 AM 17.5020 -65.2620 156° South 472 543 31,000  Level FlightAware ADS-B
Wed 02:35:57 AM 17.4230 -65.2240 155° Southeast 472 543 31,000  Level FlightAware ADS-B
Wed 02:36:37 AM 17.3550 -65.1930 156° South 472 543 31,000  Level FlightAware ADS-B
Wed 02:37:17 AM 17.2870 -65.1610 156° South 472 543 31,000  Level FlightAware ADS-B
Wed 02:37:57 AM 17.2190 -65.1300 156° South 472 543 31,000  Level FlightAware ADS-B
Wed 02:38:37 AM 17.1510 -65.0980 156° South 472 543 31,000  Level FlightAware ADS-B
Wed 02:39:27 AM 17.0670 -65.0580 156° South 472 543 31,000  Level FlightAware ADS-B
Wed 02:40:07 AM 16.9990 -65.0270 156° South 472 543 31,000  Level FlightAware ADS-B
Wed 02:40:47 AM 16.9310 -64.9950 156° South 472 543 31,000  Level FlightAware ADS-B
Wed 02:41:27 AM 16.8630 -64.9640 156° South 472 543 31,000  Level FlightAware ADS-B
Wed 02:42:07 AM 16.7950 -64.9320 156° South 472 543 31,000  Level FlightAware ADS-B
Wed 02:42:57 AM 16.7100 -64.8930 156° South 472 543 31,000  Level FlightAware ADS-B
Wed 02:43:37 AM 16.6430 -64.8610 155° Southeast 472 543 31,000  Level FlightAware ADS-B
Wed 02:44:17 AM 16.5750 -64.8300 156° South 472 543 31,000  Level FlightAware ADS-B
Wed 02:44:57 AM 16.5070 -64.7980 156° South 472 543 31,000  Level FlightAware ADS-B
Wed 02:46:03 AM 16.1333 -64.6667 156° South 470 541 31,000  Level San Juan Center
Wed 02:47:04 AM 16.0333 -64.6167 154° Southeast 470 541 31,000  Level San Juan Center
Wed 02:48:04 AM 15.9000 -64.5500 154° Southeast 470 541 31,000  Level San Juan Center
Wed 02:49:04 AM 15.8000 -64.5000 154° Southeast 460 529 31,000  Level San Juan Center
Wed 02:50:05 AM 15.6833 -64.4333 151° Southeast 470 541 31,000  Level San Juan Center
Wed 02:55:57 AM 14.9990 -64.1130 151° Southeast 478 550 31,000  Level FlightAware ADS-B
Wed 02:56:42 AM 14.9190 -64.0600 147° Southeast 478 550 31,000  Level FlightAware ADS-B
Wed 02:57:17 AM 14.8480 -64.0120 147° Southeast 478 550 31,000  Level FlightAware ADS-B
Wed 02:57:52 AM 14.7820 -63.9680 147° Southeast 477 549 31,000  Level FlightAware ADS-B
Wed 02:58:57 AM 14.6640 -63.8870 146° Southeast 476 548 31,000  Level FlightAware ADS-B
Wed 02:59:42 AM 14.5730 -63.8270 147° Southeast 475 547 31,000  Level FlightAware ADS-B
Wed 03:00:22 AM 14.5100 -63.7850 147° Southeast 475 547 31,000  Level FlightAware ADS-B
Wed 03:01:02 AM 14.4470 -63.7430 147° Southeast 475 547 31,000  Level FlightAware ADS-B
Wed 03:01:47 AM 14.3540 -63.6820 148° Southeast 475 547 31,000  Level FlightAware ADS-B
Wed 03:02:27 AM 14.2750 -63.6290 147° Southeast 476 548 31,000  Level FlightAware ADS-B
Wed 03:03:07 AM 14.2020 -63.5810 147° Southeast 475 547 31,000  Level FlightAware ADS-B
Wed 03:05:00 AM 13.9718 -63.5074 149° Southeast  Level FlightAware Approximate
Wed 03:06:00 AM 13.8649 -63.4419 149° Southeast  Level FlightAware Approximate
Wed 03:07:00 AM 13.7579 -63.3764 149° Southeast  Level FlightAware Approximate
Wed 03:07:22 AM 13.7280 -63.2660 149° Southeast 473 544 31,000  Level FlightAware ADS-B
Wed 03:08:02 AM 13.6550 -63.2190 148° Southeast 473 544 31,000  Level FlightAware ADS-B
Wed 03:08:47 AM 13.5740 -63.1650 147° Southeast 473 544 31,000  Level FlightAware ADS-B
Wed 03:09:27 AM 13.4990 -63.1160 148° Southeast 473 544 31,000  Level FlightAware ADS-B
Wed 03:10:12 AM 13.4210 -63.0650 148° Southeast 473 544 31,000  Level FlightAware ADS-B
Wed 03:11:07 AM 13.3120 -62.9930 147° Southeast 473 544 31,000  Level FlightAware ADS-B
Wed 03:11:52 AM 13.2320 -62.9410 148° Southeast 473 544 31,000  Level FlightAware ADS-B
Wed 03:12:32 AM 13.1560 -62.8910 147° Southeast 474 545 31,000  Level FlightAware ADS-B
Wed 03:13:12 AM 13.0820 -62.8420 147° Southeast 474 545 31,000  Level FlightAware ADS-B
Wed 03:13:52 AM 13.0120 -62.7970 148° Southeast 473 544 31,000  Level FlightAware ADS-B
Wed 03:14:37 AM 12.9250 -62.7390 147° Southeast 472 543 31,000  Level FlightAware ADS-B
Wed 03:15:22 AM 12.8410 -62.6840 147° Southeast 471 542 31,000  Level FlightAware ADS-B
Wed 03:16:17 AM 12.7410 -62.6190 148° Southeast 471 542 31,000  Level FlightAware ADS-B
Wed 03:17:12 AM 12.6400 -62.5530 147° Southeast 469 540 31,000  Level FlightAware ADS-B
Wed 03:17:52 AM 12.5680 -62.5050 147° Southeast 470 541 31,000  Level FlightAware ADS-B
Wed 03:18:32 AM 12.5520 -62.4950 149° Southeast 470 541 31,000  Level FlightAware ADS-B
Wed 03:19:32 AM 12.3830 -62.3850 148° Southeast 467 537 31,000  Level FlightAware ADS-B
Wed 03:20:12 AM 12.3110 -62.3380 147° Southeast 467 537 31,000  Level FlightAware ADS-B
Wed 03:20:57 AM 12.2300 -62.2860 148° Southeast 466 536 31,000  Level FlightAware ADS-B
Wed 03:21:52 AM 12.1870 -62.2580 148° Southeast 466 536 31,000  Level FlightAware ADS-B
Wed 03:22:32 AM 12.1260 -62.2170 147° Southeast 466 536 31,000  Level FlightAware ADS-B
Wed 03:23:12 AM 12.0640 -62.1760 147° Southeast 466 536 31,000  Level FlightAware ADS-B
Wed 03:23:52 AM 12.0030 -62.1350 147° Southeast 466 536 31,000  Level FlightAware ADS-B
Wed 03:24:42 AM 11.9260 -62.0840 147° Southeast 466 536 31,000  Level FlightAware ADS-B
Wed 03:25:22 AM 11.8640 -62.0430 147° Southeast 466 536 31,000  Level FlightAware ADS-B
Wed 03:26:02 AM 11.8030 -62.0030 147° Southeast 466 536 31,000  Level FlightAware ADS-B
Wed 03:26:42 AM 11.7410 -61.9620 147° Southeast 466 536 31,000  Level FlightAware ADS-B
Wed 03:27:32 AM 11.6650 -61.9110 147° Southeast 466 536 31,000  Level FlightAware ADS-B
Wed 03:28:12 AM 11.6030 -61.8700 147° Southeast 466 536 31,000  Level FlightAware ADS-B
Wed 03:28:52 AM 11.5420 -61.8290 147° Southeast 466 536 31,000  Level FlightAware ADS-B
Wed 03:29:32 AM 11.4800 -61.7890 148° Southeast 466 536 31,000  Level FlightAware ADS-B
Wed 03:30:12 AM 11.4190 -61.7480 147° Southeast 466 536 31,000  Level FlightAware ADS-B
Wed 03:30:52 AM 11.3570 -61.7070 147° Southeast 466 536 31,000 11 Level FlightAware ADS-B
Wed 03:33:00 AM 11.1129 -61.6007 157° South  Level Estimated
Wed 03:34:00 AM 10.9984 -61.5509 157° South  Level Estimated
Wed 03:35:00 AM 10.8840 -61.5012 157° South  Level Estimated
Wed 03:36:00 AM 10.7695 -61.4515 157° South  Level Estimated
Wed 03:37:00 AM 10.6551 -61.4018 157° South  Level Estimated
Wed 03:38:00 AM 10.5405 -61.3521 157° South  Level Estimated
Wed 03:39:00 AM 10.4260 -61.3025 157° South  Level Estimated
Wed 03:40:00 AM 10.3114 -61.2529 157° South  Level Estimated
Wed 03:41:00 AM 10.1969 -61.2034 157° South  Level Estimated
Wed 03:42:00 AM 10.0823 -61.1539 157° South  Level Estimated
Wed 03:43:00 AM 9.9677 -61.1044 157° South  Level Estimated
Wed 03:44:00 AM 9.8532 -61.0550 157° South  Level Estimated
Wed 03:45:00 AM 9.7386 -61.0056 157° South  Level Estimated
Wed 03:46:00 AM 9.6240 -60.9562 157° South  Level Estimated
Wed 03:47:00 AM 9.5094 -60.9069 157° South  Level Estimated
Wed 03:48:00 AM 9.3947 -60.8576 157° South  Level Estimated
Wed 03:49:00 AM 9.2801 -60.8083 157° South  Level Estimated
Wed 03:50:00 AM 9.1655 -60.7591 157° South  Level Estimated
Wed 03:51:00 AM 9.0509 -60.7099 157° South  Level Estimated
Wed 03:52:00 AM 8.9362 -60.6607 157° South  Level Estimated
Wed 03:53:00 AM 8.8216 -60.6115 157° South  Level Estimated
Wed 03:54:00 AM 8.7070 -60.5624 157° South  Level Estimated
Wed 03:55:00 AM 8.5923 -60.5134 157° South  Level Estimated
Wed 03:56:00 AM 8.4776 -60.4643 157° South  Level Estimated
Wed 03:57:00 AM 8.3630 -60.4153 157° South  Level Estimated
Wed 03:58:00 AM 8.2483 -60.3663 157° South  Level Estimated
Wed 03:59:00 AM 8.1336 -60.3173 157° South  Level Estimated
Wed 04:00:00 AM 8.0189 -60.2684 157° South  Level Estimated
Wed 04:01:00 AM 7.9042 -60.2195 157° South  Level Estimated
Wed 04:02:00 AM 7.7895 -60.1706 157° South  Level Estimated
Wed 04:03:00 AM 7.6748 -60.1217 157° South  Level Estimated
Wed 04:04:00 AM 7.5601 -60.0729 157° South  Level Estimated
Wed 04:05:00 AM 7.4454 -60.0241 157° South  Level Estimated
Wed 04:06:00 AM 7.3307 -59.9753 157° South  Level Estimated
Wed 04:07:00 AM 7.2160 -59.9266 157° South  Level Estimated
Wed 04:08:00 AM 7.1012 -59.8778 157° South  Level Estimated
Wed 04:09:00 AM 6.9865 -59.8291 157° South  Level Estimated
Wed 04:10:00 AM 6.8718 -59.7804 157° South  Level Estimated
Wed 04:11:00 AM 6.7570 -59.7318 157° South  Level Estimated
Wed 04:12:00 AM 6.6423 -59.6832 157° South  Level Estimated
Wed 04:13:00 AM 6.5275 -59.6345 157° South  Level Estimated
Wed 04:14:00 AM 6.4128 -59.5860 157° South  Level Estimated
Wed 04:15:00 AM 6.2980 -59.5374 157° South  Level Estimated
Wed 04:16:00 AM 6.1832 -59.4888 157° South  Level Estimated
Wed 04:17:00 AM 6.0685 -59.4403 157° South  Level Estimated
Wed 04:18:00 AM 5.9537 -59.3918 157° South  Level Estimated
Wed 04:19:00 AM 5.8389 -59.3433 157° South  Level Estimated
Wed 04:20:00 AM 5.7241 -59.2949 157° South  Level Estimated
Wed 04:21:00 AM 5.6093 -59.2464 157° South  Level Estimated
Wed 04:22:00 AM 5.4946 -59.1980 157° South  Level Estimated
Wed 04:23:00 AM 5.3797 -59.1496 157° South  Level Estimated
Wed 04:24:00 AM 5.2649 -59.1012 157° South  Level Estimated
Wed 04:25:00 AM 5.1501 -59.0528 157° South  Level Estimated
Wed 04:26:00 AM 5.0353 -59.0045 157° South  Level Estimated
Wed 04:27:00 AM 4.9205 -58.9561 157° South  Level Estimated
Wed 04:28:00 AM 4.8057 -58.9078 157° South  Level Estimated
Wed 04:29:00 AM 4.6909 -58.8595 157° South  Level Estimated
Wed 04:30:00 AM 4.5761 -58.8112 157° South  Level Estimated
Wed 04:31:00 AM 4.4613 -58.7630 157° South  Level Estimated
Wed 04:32:00 AM 4.3464 -58.7147 157° South  Level Estimated
Wed 04:33:00 AM 4.2316 -58.6665 157° South  Level Estimated
Wed 04:34:00 AM 4.1168 -58.6182 157° South  Level Estimated
Wed 04:35:00 AM 4.0019 -58.5700 157° South  Level Estimated
Wed 04:36:00 AM 3.8871 -58.5218 157° South  Level Estimated
Wed 04:37:00 AM 3.7722 -58.4736 157° South  Level Estimated
Wed 04:38:00 AM 3.6574 -58.4254 157° South  Level Estimated
Wed 04:39:00 AM 3.5426 -58.3773 157° South  Level Estimated
Wed 04:40:00 AM 3.4277 -58.3291 157° South  Level Estimated
Wed 04:41:00 AM 3.3128 -58.2810 157° South  Level Estimated
Wed 04:42:00 AM 3.1980 -58.2329 157° South  Level Estimated
Wed 04:43:00 AM 3.0831 -58.1847 157° South  Level Estimated
Wed 04:44:00 AM 2.9683 -58.1366 157° South  Level Estimated
Wed 04:45:00 AM 2.8534 -58.0885 157° South  Level Estimated
Wed 04:46:00 AM 2.7386 -58.0404 157° South  Level Estimated
Wed 04:47:00 AM 2.6237 -57.9924 157° South  Level Estimated
Wed 04:48:00 AM 2.5088 -57.9443 157° South  Level Estimated
Wed 04:49:00 AM 2.3939 -57.8962 157° South  Level Estimated
Wed 04:50:00 AM 2.2791 -57.8482 157° South  Level Estimated
Wed 04:51:00 AM 2.1642 -57.8001 157° South  Level Estimated
Wed 04:52:00 AM 2.0493 -57.7521 157° South  Level Estimated
Wed 04:53:00 AM 1.9345 -57.7041 157° South  Level Estimated
Wed 04:54:00 AM 1.8196 -57.6561 157° South  Level Estimated
Wed 04:55:00 AM 1.7045 -57.6079 157° South  Level Estimated
Wed 04:56:00 AM 1.5894 -57.5598 157° South  Level Estimated
Wed 04:57:00 AM 1.4743 -57.5118 157° South  Level Estimated
Wed 04:58:00 AM 1.3592 -57.4637 157° South  Level Estimated
Wed 04:59:00 AM 1.2442 -57.4156 157° South  Level Estimated
Wed 05:00:00 AM 1.1291 -57.3675 157° South  Level Estimated
Wed 05:01:00 AM 1.0140 -57.3194 157° South  Level Estimated
Wed 05:02:00 AM 0.8989 -57.2714 157° South  Level Estimated
Wed 05:03:00 AM 0.7838 -57.2233 157° South  Level Estimated
Wed 05:04:00 AM 0.6687 -57.1752 157° South  Level Estimated
Wed 05:05:00 AM 0.5536 -57.1272 157° South  Level Estimated
Wed 05:06:00 AM 0.4385 -57.0791 157° South  Level Estimated
Wed 05:07:00 AM 0.3234 -57.0310 157° South  Level Estimated
Wed 05:08:00 AM 0.2083 -56.9830 157° South  Level Estimated
Wed 05:09:00 AM 0.0932 -56.9349 157° South  Level Estimated
Wed 05:10:00 AM -0.0218 -56.8869 157° South  Level Estimated
Wed 05:11:00 AM -0.1369 -56.8388 157° South  Level Estimated
Wed 05:12:00 AM -0.2520 -56.7907 157° South  Level Estimated
Wed 05:13:00 AM -0.3671 -56.7427 157° South  Level Estimated
Wed 05:14:00 AM -0.4822 -56.6946 157° South  Level Estimated
Wed 05:15:00 AM -0.5973 -56.6466 157° South  Level Estimated
Wed 05:16:00 AM -0.7124 -56.5985 157° South  Level Estimated
Wed 05:17:00 AM -0.8275 -56.5504 157° South  Level Estimated
Wed 05:18:00 AM -0.9426 -56.5024 157° South  Level Estimated
Wed 05:19:00 AM -1.0576 -56.4543 157° South  Level Estimated
Wed 05:20:00 AM -1.1727 -56.4062 157° South  Level Estimated
Wed 05:21:00 AM -1.2878 -56.3581 157° South  Level Estimated
Wed 05:22:00 AM -1.4029 -56.3101 157° South  Level Estimated
Wed 05:23:00 AM -1.5180 -56.2620 157° South  Level Estimated
Wed 05:24:00 AM -1.6331 -56.2139 157° South  Level Estimated
Wed 05:25:00 AM -1.7482 -56.1658 157° South  Level Estimated
Wed 05:26:00 AM -1.8633 -56.1177 157° South  Level Estimated
Wed 05:27:00 AM -1.9783 -56.0695 157° South  Level Estimated
Wed 05:28:00 AM -2.0934 -56.0214 157° South  Level Estimated
Wed 05:29:00 AM -2.2085 -55.9733 157° South  Level Estimated
Wed 05:30:00 AM -2.3236 -55.9252 157° South  Level Estimated
Wed 05:31:00 AM -2.4386 -55.8770 157° South  Level Estimated
Wed 05:32:00 AM -2.5537 -55.8289 157° South  Level Estimated
Wed 05:33:00 AM -2.6688 -55.7807 157° South  Level Estimated
Wed 05:34:00 AM -2.7839 -55.7326 157° South  Level Estimated
Wed 05:35:00 AM -2.8989 -55.6844 157° South  Level Estimated
Wed 05:36:00 AM -3.0140 -55.6362 157° South  Level Estimated
Wed 05:37:00 AM -3.1291 -55.5880 157° South  Level Estimated
Wed 05:38:00 AM -3.2441 -55.5398 157° South  Level Estimated
Wed 05:39:00 AM -3.3592 -55.4916 157° South  Level Estimated
Wed 05:40:00 AM -3.4742 -55.4433 157° South  Level Estimated
Wed 05:41:00 AM -3.5893 -55.3951 157° South  Level Estimated
Wed 05:42:00 AM -3.7043 -55.3468 157° South  Level Estimated
Wed 05:43:00 AM -3.8194 -55.2986 157° South  Level Estimated
Wed 05:44:00 AM -3.9344 -55.2503 157° South  Level Estimated
Wed 05:45:00 AM -4.0495 -55.2020 157° South  Level Estimated
Wed 05:46:00 AM -4.1645 -55.1537 157° South  Level Estimated
Wed 05:47:00 AM -4.2796 -55.1054 157° South  Level Estimated
Wed 05:48:00 AM -4.3946 -55.0570 157° South  Level Estimated
Wed 05:49:00 AM -4.5096 -55.0087 157° South  Level Estimated
Wed 05:50:00 AM -4.6247 -54.9603 157° South  Level Estimated
Wed 05:51:00 AM -4.7397 -54.9119 157° South  Level Estimated
Wed 05:52:00 AM -4.8547 -54.8635 157° South  Level Estimated
Wed 05:53:00 AM -4.9697 -54.8151 157° South  Level Estimated
Wed 05:54:00 AM -5.0847 -54.7667 157° South  Level Estimated
Wed 05:55:00 AM -5.1997 -54.7182 157° South  Level Estimated
Wed 05:56:00 AM -5.3148 -54.6698 157° South  Level Estimated
Wed 05:57:00 AM -5.4297 -54.6213 157° South  Level Estimated
Wed 05:58:00 AM -5.5448 -54.5728 157° South  Level Estimated
Wed 05:59:00 AM -5.6597 -54.5243 157° South  Level Estimated
Wed 06:00:00 AM -5.7747 -54.4757 157° South  Level Estimated
Wed 06:01:00 AM -5.8897 -54.4272 157° South  Level Estimated
Wed 06:02:00 AM -6.0047 -54.3786 157° South  Level Estimated
Wed 06:03:00 AM -6.1197 -54.3300 157° South  Level Estimated
Wed 06:04:00 AM -6.2347 -54.2814 157° South  Level Estimated
Wed 06:05:00 AM -6.3496 -54.2327 157° South  Level Estimated
Wed 06:06:00 AM -6.4644 -54.1842 157° South  Level Estimated
Wed 06:07:00 AM -6.5792 -54.1356 157° South  Level Estimated
Wed 06:08:00 AM -6.6935 -54.0871 157° South  Level Estimated
Wed 06:09:00 AM -6.8078 -54.0386 157° South  Level Estimated
Wed 06:10:00 AM -6.9222 -53.9901 157° South  Level Estimated
Wed 06:11:00 AM -7.0365 -53.9416 157° South  Level Estimated
Wed 06:12:00 AM -7.1508 -53.8931 157° South  Level Estimated
Wed 06:13:00 AM -7.2651 -53.8445 157° South  Level Estimated
Wed 06:14:00 AM -7.3794 -53.7959 157° South  Level Estimated
Wed 06:15:00 AM -7.4938 -53.7473 157° South  Level Estimated
Wed 06:16:00 AM -7.6080 -53.6987 157° South  Level Estimated
Wed 06:17:00 AM -7.7224 -53.6500 157° South  Level Estimated
Wed 06:18:00 AM -7.8366 -53.6013 157° South  Level Estimated
Wed 06:19:00 AM -7.9509 -53.5526 157° South  Level Estimated
Wed 06:20:00 AM -8.0652 -53.5038 157° South  Level Estimated
Wed 06:21:00 AM -8.1795 -53.4550 157° South  Level Estimated
Wed 06:22:00 AM -8.2938 -53.4062 157° South  Level Estimated
Wed 06:23:00 AM -8.4080 -53.3574 157° South  Level Estimated
Wed 06:24:00 AM -8.5223 -53.3086 157° South  Level Estimated
Wed 06:25:00 AM -8.6365 -53.2597 157° South  Level Estimated
Wed 06:26:00 AM -8.7508 -53.2107 157° South  Level Estimated
Wed 06:27:00 AM -8.8650 -53.1618 157° South  Level Estimated
Wed 06:28:00 AM -8.9792 -53.1128 157° South  Level Estimated
Wed 06:29:00 AM -9.0935 -53.0638 157° South  Level Estimated
Wed 06:30:00 AM -9.2077 -53.0148 157° South  Level Estimated
Wed 06:31:00 AM -9.3219 -52.9657 157° South  Level Estimated
Wed 06:31:47 AM -9.7960 -51.1770 157° South 485 558 33,000  Level FlightAware ADS-B
Wed 06:32:00 AM -9.4361 -52.9166 157° South  Level Estimated
Wed 06:32:22 AM -9.8620 -51.1430 153° Southeast 485 558 33,000  Level FlightAware ADS-B
Wed 06:33:22 AM -9.9810 -51.0830 154° Southeast 486 559 33,000  Level FlightAware ADS-B
Wed 06:34:02 AM -10.0490 -51.0480 153° Southeast 486 559 33,000  Level FlightAware ADS-B
Wed 06:34:17 AM -9.9330 -51.1080 333° Northwest 33,000  Level FlightAware ADS-B
Wed 06:34:37 AM -10.1470 -50.9990 153° Southeast 485 558 33,000  Level FlightAware ADS-B
Wed 06:35:17 AM -10.2240 -50.9600 154° Southeast 485 558 33,000  Level FlightAware ADS-B
Wed 06:35:57 AM -10.3080 -50.9180 154° Southeast 486 559 33,000  Level FlightAware ADS-B
Wed 06:36:42 AM -10.4040 -50.8690 153° Southeast 487 560 33,000  Level FlightAware ADS-B
Wed 06:37:17 AM -10.4660 -50.8370 153° Southeast 487 560 33,000  Level FlightAware ADS-B
Wed 06:38:02 AM -10.5480 -50.7950 153° Southeast 486 559 33,000  Level FlightAware ADS-B
Wed 06:38:47 AM -10.6500 -50.7430 153° Southeast 486 559 33,000  Level FlightAware ADS-B
Wed 06:39:47 AM -10.7680 -50.6870 155° Southeast 486 559 33,000  Level FlightAware ADS-B
Wed 06:40:07 AM -10.7000 -50.7180 336° Northwest 474 545 33,000  Level FlightAware ADS-B
Wed 06:40:57 AM -10.9260 -50.7360 184° South 477 549 33,000  Level FlightAware ADS-B
Wed 06:41:37 AM -11.0100 -50.7330 178° South 481 554 33,000  Level FlightAware ADS-B
Wed 06:42:27 AM -11.1180 -50.6900 159° South 484 557 33,000  Level FlightAware ADS-B
Wed 06:43:22 AM -11.1650 -50.6650 152° Southeast 484 557 33,000  Level FlightAware ADS-B
Wed 06:44:12 AM -11.3180 -50.5790 151° Southeast 484 557 33,000  Level FlightAware ADS-B
Wed 06:45:02 AM -11.4210 -50.5230 152° Southeast 481 554 33,000  Level FlightAware ADS-B
Wed 06:45:47 AM -11.5080 -50.4750 152° Southeast 481 554 33,000  Level FlightAware ADS-B
Wed 06:46:47 AM -11.6200 -50.4120 151° Southeast 480 552 33,000  Level FlightAware ADS-B
Wed 06:47:27 AM -11.6860 -50.3750 151° Southeast 480 552 33,000  Level FlightAware ADS-B
Wed 06:48:07 AM -11.7520 -50.3370 151° Southeast 480 552 33,000  Level FlightAware ADS-B
Wed 06:48:42 AM -11.8500 -50.2850 153° Southeast 474 545 33,000  Level FlightAware ADS-B
Wed 06:49:27 AM -11.9290 -50.2400 151° Southeast 474 545 33,000  Level FlightAware ADS-B
Wed 06:50:12 AM -12.0200 -50.1900 152° Southeast 470 541 33,000 565 Level FlightAware ADS-B
Wed 06:52:00 AM -12.2339 -50.1243 163° South  Level Estimated
Wed 06:52:17 AM -12.2600 -50.0570 163° South 473 544 34,600  Level FlightAware ADS-B
Wed 06:53:02 AM -12.3380 -50.0120 151° Southeast 473 544 34,600  Level FlightAware ADS-B
Wed 06:53:42 AM -12.4030 -49.9760 152° Southeast 473 544 34,600  Level FlightAware ADS-B
Wed 06:54:22 AM -12.4680 -49.9390 151° Southeast 473 544 34,600  Level FlightAware ADS-B
Wed 06:55:02 AM -12.5330 -49.9020 151° Southeast 473 544 34,600  Level FlightAware ADS-B
Wed 06:55:52 AM -12.6150 -49.8550 151° Southeast 473 544 34,600  Level FlightAware ADS-B
Wed 06:56:32 AM -12.6800 -49.8180 151° Southeast 473 544 34,600  Level FlightAware ADS-B
Wed 06:57:12 AM -12.7450 -49.7810 151° Southeast 473 544 34,600  Level FlightAware ADS-B
Wed 06:57:52 AM -12.8100 -49.7440 151° Southeast 473 544 34,600  Level FlightAware ADS-B
Wed 06:58:32 AM -12.8750 -49.7070 151° Southeast 473 544 34,600  Level FlightAware ADS-B
Wed 06:59:22 AM -12.9560 -49.6610 151° Southeast 473 544 34,600  Level FlightAware ADS-B
Wed 07:00:02 AM -13.0210 -49.6240 151° Southeast 473 544 34,600  Level FlightAware ADS-B
Wed 07:00:42 AM -13.0870 -49.5870 151° Southeast 473 544 34,600  Level FlightAware ADS-B
Wed 07:01:22 AM -13.1520 -49.5500 151° Southeast 473 544 34,600  Level FlightAware ADS-B
Wed 07:02:02 AM -13.2170 -49.5130 151° Southeast 473 544 34,600 105 Level FlightAware ADS-B
Wed 07:04:00 AM -13.4523 -49.4467 165° South  Level Estimated
Wed 07:05:00 AM -13.5719 -49.4129 165° South  Level Estimated
Wed 07:06:00 AM -13.6916 -49.3790 165° South  Level Estimated
Wed 07:07:00 AM -13.8112 -49.3452 165° South  Level Estimated
Wed 07:08:00 AM -13.9308 -49.3113 165° South  Level Estimated
Wed 07:09:00 AM -14.0504 -49.2774 165° South  Level Estimated
Wed 07:10:00 AM -14.1700 -49.2434 165° South  Level Estimated
Wed 07:10:52 AM -14.4470 -48.8310 165° South 488 562 35,600  Level FlightAware ADS-B
Wed 07:11:00 AM -14.2896 -49.2094 165° South  Level Estimated
Wed 07:11:42 AM -14.5440 -48.7770 152° Southeast 491 565 36,000  Level FlightAware ADS-B
Wed 07:12:22 AM -14.6250 -48.7310 151° Southeast 491 565 36,000  Level FlightAware ADS-B
Wed 07:13:07 AM -14.7160 -48.6800 152° Southeast 491 565 36,000  Level FlightAware ADS-B
Wed 07:13:47 AM -14.7970 -48.6350 152° Southeast 491 565 36,000  Level FlightAware ADS-B
Wed 07:14:32 AM -14.8860 -48.5850 152° Southeast 491 565 36,000  Level FlightAware ADS-B
Wed 07:15:12 AM -14.9650 -48.5400 151° Southeast 490 564 36,000  Level FlightAware ADS-B
Wed 07:15:57 AM -15.0540 -48.4900 152° Southeast 491 565 36,000  Level FlightAware ADS-B
Wed 07:16:37 AM -15.1370 -48.4430 151° Southeast 491 565 36,000  Level FlightAware ADS-B
Wed 07:17:17 AM -15.2170 -48.3980 152° Southeast 490 564 36,000  Level FlightAware ADS-B
Wed 07:18:02 AM -15.3070 -48.3470 151° Southeast 490 564 36,000  Level FlightAware ADS-B
Wed 07:18:42 AM -15.3870 -48.3020 152° Southeast 490 564 36,000  Level FlightAware ADS-B
Wed 07:19:22 AM -15.4630 -48.2590 151° Southeast 491 565 36,000  Level FlightAware ADS-B
Wed 07:20:07 AM -15.5520 -48.2090 152° Southeast 493 567 36,000  Level FlightAware ADS-B
Wed 07:20:47 AM -15.6350 -48.1620 151° Southeast 495 570 36,000  Level FlightAware ADS-B
Wed 07:21:32 AM -15.7290 -48.1090 152° Southeast 497 572 36,000  Level FlightAware ADS-B
Wed 07:22:42 AM -15.8550 -48.0370 151° Southeast 497 572 36,000  Level FlightAware ADS-B
Wed 07:23:47 AM -16.0050 -48.0030 168° South 487 560 36,000  Level FlightAware ADS-B
Wed 07:24:27 AM -16.0780 -47.9790 162° South 487 560 36,000  Level FlightAware ADS-B
Wed 07:25:22 AM -16.2160 -47.9840 182° South 478 550 36,000  Level FlightAware ADS-B
Wed 07:26:07 AM -16.3110 -47.9750 175° South 477 549 36,000  Level FlightAware ADS-B
Wed 07:27:07 AM -16.4480 -47.9650 176° South 474 545 36,000  Level FlightAware ADS-B
Wed 07:27:47 AM -16.5330 -47.9590 176° South 473 544 36,000  Level FlightAware ADS-B
Wed 07:28:27 AM -16.6200 -47.9530 176° South 473 544 36,000  Level FlightAware ADS-B
Wed 07:29:07 AM -16.7010 -47.9470 176° South 471 542 36,000  Level FlightAware ADS-B
Wed 07:29:52 AM -16.7920 -47.9400 176° South 471 542 36,000  Level FlightAware ADS-B
Wed 07:30:32 AM -16.8650 -47.9350 176° South 471 542 36,000  Level FlightAware ADS-B
Wed 07:31:12 AM -16.9390 -47.9290 176° South 471 542 36,000  Level FlightAware ADS-B
Wed 07:32:02 AM -17.0320 -47.9230 176° South 471 542 36,000  Level FlightAware ADS-B
Wed 07:32:42 AM -17.1060 -47.9170 176° South 471 542 36,000  Level FlightAware ADS-B
Wed 07:33:22 AM -17.1800 -47.9120 176° South 471 542 36,000  Level FlightAware ADS-B
Wed 07:34:02 AM -17.2530 -47.9060 176° South 471 542 36,000  Level FlightAware ADS-B
Wed 07:34:52 AM -17.3460 -47.9000 176° South 471 542 36,000  Level FlightAware ADS-B
Wed 07:35:32 AM -17.4200 -47.8940 176° South 471 542 36,000  Level FlightAware ADS-B
Wed 07:36:12 AM -17.4940 -47.8890 176° South 471 542 36,000  Level FlightAware ADS-B
Wed 07:36:52 AM -17.5680 -47.8830 176° South 471 542 36,000  Level FlightAware ADS-B
Wed 07:38:32 AM -17.8830 -47.7900 164° South 462 532 36,000  Level FlightAware ADS-B
Wed 07:39:12 AM -17.9680 -47.7780 172° South 462 532 36,000  Level FlightAware ADS-B
Wed 07:40:12 AM -18.0930 -47.7610 173° South 462 532 36,000  Level FlightAware ADS-B
Wed 07:40:52 AM -18.1650 -47.7500 172° South 462 532 36,000  Level FlightAware ADS-B
Wed 07:41:47 AM -18.2950 -47.7330 173° South 462 532 36,000  Level FlightAware ADS-B
Wed 07:44:00 AM -18.5632 -47.6691 167° South  Level Estimated
Wed 07:45:00 AM -18.6842 -47.6402 167° South  Level Estimated
Wed 07:46:00 AM -18.8052 -47.6113 167° South  Level Estimated
Wed 07:47:00 AM -18.9262 -47.5823 167° South  Level Estimated
Wed 07:48:00 AM -19.0472 -47.5533 167° South  Level Estimated
Wed 07:49:00 AM -19.1686 -47.5242 167° South  Level Estimated
Wed 07:50:00 AM -19.2900 -47.4949 167° South  Level Estimated
Wed 07:51:00 AM -19.4114 -47.4657 167° South  Level Estimated
Wed 07:52:00 AM -19.5328 -47.4364 167° South  Level Estimated
Wed 07:53:00 AM -19.6542 -47.4071 167° South  Level Estimated
Wed 07:54:00 AM -19.7756 -47.3777 167° South  Level Estimated
Wed 07:55:00 AM -19.8970 -47.3483 167° South  Level Estimated
Wed 07:55:32 AM -20.0790 -47.5040 167° South 472 543 36,000  Level FlightAware ADS-B
Wed 07:58:00 AM -20.3745 -47.4148 164° South  Level Estimated
Wed 07:59:00 AM -20.4942 -47.3785 164° South  Level Estimated
Wed 07:59:37 AM -20.6470 -47.4630 164° South 468 539 36,000  Level FlightAware ADS-B
Wed 08:00:12 AM -20.7220 -47.4570 176° South 468 539 36,000  Level FlightAware ADS-B
Wed 08:00:57 AM -20.8210 -47.4500 176° South 467 537 36,000  Level FlightAware ADS-B
Wed 08:01:42 AM -20.9160 -47.4430 176° South 468 539 36,000  Level FlightAware ADS-B
Wed 08:02:22 AM -21.0040 -47.4370 176° South 469 540 36,000  Level FlightAware ADS-B
Wed 08:03:02 AM -21.0900 -47.4300 176° South 469 540 36,000  Level FlightAware ADS-B
Wed 08:03:42 AM -21.1790 -47.4240 176° South 470 541 36,000  Level FlightAware ADS-B
Wed 08:04:27 AM -21.2780 -47.4170 176° South 469 540 36,000  Level FlightAware ADS-B
Wed 08:05:12 AM -21.3730 -47.4100 176° South 469 540 36,000  Level FlightAware ADS-B
Wed 08:05:52 AM -21.4590 -47.4030 176° South 469 540 36,000 -150 Level FlightAware ADS-B
Wed 08:06:32 AM -21.5470 -47.3970 176° South 466 536 35,800 -494 Descending FlightAware ADS-B
Wed 08:07:17 AM -21.6460 -47.3890 176° South 453 521 35,300 -565 Descending FlightAware ADS-B
Wed 08:07:57 AM -21.7270 -47.3830 176° South 448 516 35,000 -353 Descending FlightAware ADS-B
Wed 08:08:42 AM -21.8210 -47.3760 176° South 451 519 34,800 -1,271 Descending FlightAware ADS-B
Wed 08:09:22 AM -21.9020 -47.3700 176° South 448 516 33,200 -1,271 Descending FlightAware ADS-B
Wed 08:10:07 AM -21.9960 -47.3580 173° South 436 502 33,000 -141 Descending FlightAware ADS-B
Wed 08:10:47 AM -22.0730 -47.3300 161° South 427 491 33,000  Level FlightAware ADS-B
Wed 08:11:27 AM -22.1430 -47.3010 159° South 400 460 33,000 -1,275 Level FlightAware ADS-B
Wed 08:12:07 AM -22.2120 -47.2720 159° South 410 472 31,300 -3,360 Descending FlightAware ADS-B
Wed 08:12:42 AM -22.2750 -47.2460 159° South 431 496 28,800 -3,459 Descending FlightAware ADS-B
Wed 08:13:32 AM -22.3630 -47.2090 159° South 436 502 26,400 -2,653 Descending FlightAware ADS-B
Wed 08:14:17 AM -22.4490 -47.1720 158° South 418 481 24,600 -2,541 Descending FlightAware ADS-B
Wed 08:14:57 AM -22.5200 -47.1410 158° South 415 478 22,800 -2,475 Descending FlightAware ADS-B
Wed 08:15:37 AM -22.5930 -47.1100 159° South 397 457 21,300 -2,100 Descending FlightAware ADS-B
Wed 08:16:17 AM -22.6610 -47.0810 159° South 385 443 20,000 -2,188 Descending FlightAware ADS-B
Wed 08:17:02 AM -22.7370 -47.0490 159° South 383 441 18,200 -2,259 Descending FlightAware ADS-B
Wed 08:17:42 AM -22.8010 -47.0220 159° South 364 419 16,800 -2,188 Descending FlightAware ADS-B
Wed 08:18:27 AM -22.8730 -46.9910 158° South 365 420 15,100 -2,118 Descending FlightAware ADS-B
Wed 08:19:07 AM -22.9340 -46.9650 159° South 344 396 13,800 -1,906 Descending FlightAware ADS-B
Wed 08:19:52 AM -22.9980 -46.9380 159° South 316 364 12,400 -1,835 Descending FlightAware ADS-B
Wed 08:20:32 AM -23.0510 -46.9150 158° South 296 341 11,200 -1,650 Descending FlightAware ADS-B
Wed 08:21:12 AM -23.1010 -46.8940 159° South 279 321 10,200 -1,286 Descending FlightAware ADS-B
Wed 08:21:42 AM -23.1350 -46.8790 158° South 258 297 9,700 -873 Descending FlightAware ADS-B
Wed 08:22:07 AM -23.1650 -46.8660 158° South 265 305 9,400 -764 Descending FlightAware ADS-B
Wed 08:22:37 AM -23.1990 -46.8520 159° South 263 303 9,000 -700 Descending FlightAware ADS-B
Wed 08:23:07 AM -23.2320 -46.8370 157° South 244 281 8,700 -667 Descending FlightAware ADS-B
Wed 08:23:22 AM -23.2470 -46.8310 160° South 226 260 8,500 -600 Descending FlightAware ADS-B
Wed 08:23:47 AM -23.2710 -46.8200 157° South 208 239 8,300 -450 Descending FlightAware ADS-B
Wed 08:24:02 AM -23.2850 -46.8140 159° South 207 238 8,200 -600 Descending FlightAware ADS-B
Wed 08:24:27 AM -23.3080 -46.8050 160° South 207 238 7,900 -750 Descending FlightAware ADS-B
Wed 08:24:42 AM -23.3200 -46.7980 152° Southeast 207 238 7,700 -800 Descending FlightAware ADS-B
Wed 08:25:12 AM -23.3420 -46.7780 140° Southeast 202 232 7,300 -1,067 Descending FlightAware ADS-B
Wed 08:25:27 AM -23.3530 -46.7670 137° Southeast 209 241 6,900 -1,350 Descending FlightAware ADS-B
Wed 08:25:52 AM -23.3700 -46.7480 134° Southeast 210 242 6,400 -982 Descending FlightAware ADS-B
Wed 08:26:22 AM -23.3920 -46.7260 137° Southeast 201 231 6,000 -800 Descending FlightAware ADS-B
Wed 08:26:52 AM -23.4130 -46.7040 136° Southeast 190 219 5,600 -764 Descending FlightAware ADS-B
Wed 08:27:17 AM -23.4280 -46.6880 136° Southeast 184 212 5,300 -655 Descending FlightAware ADS-B
Wed 08:27:47 AM -23.4470 -46.6690 137° Southeast 183 211 5,000 -764 Descending FlightAware ADS-B
Wed 08:28:12 AM -23.4630 -46.6520 136° Southeast 179 206 4,600 -900 Descending FlightAware ADS-B
Wed 08:28:27 AM -23.4700 -46.6430 130° Southeast 168 193 4,400 -480 Descending FlightAware ADS-B
Wed 08:28:37 AM -23.4720 -46.6340 104° East 173 199 4,400  Level FlightAware ADS-B
Wed 08:28:57 AM -23.4700 -46.6180 82° East 175 201 4,400 -533 Level FlightAware ADS-B
Wed 08:29:22 AM -23.4640 -46.5970 73° East 156 180 4,000 -982 Descending FlightAware ADS-B
Wed 08:29:52 AM -23.4580 -46.5740 74° East 155 178 3,500 -900 Descending FlightAware ADS-B
Wed 08:30:22 AM -23.4520 -46.5510 74° East 157 181 3,100 -764 Descending FlightAware ADS-B
Wed 08:30:47 AM -23.4470 -46.5330 73° East 156 180 2,800 -764 Descending FlightAware ADS-B
Wed 08:31:17 AM -23.4410 -46.5080 75° East 159 183 2,400 -800 Descending FlightAware ADS-B

Login

Don't have an account? Register now (free) for customized features, flight alerts, and more!